sensor_id;sensor_type;location;lat;lon;timestamp;P1;durP1;ratioP1;P2;durP2;ratioP2
78744;SDS011;68064;53.100;8.824;2023-04-24T00:00:40;1.35;;;0.10;;
78744;SDS011;68064;53.100;8.824;2023-04-24T00:01:43;2.10;;;0.10;;
78744;SDS011;68064;53.100;8.824;2023-04-24T00:02:45;1.25;;;0.10;;
78744;SDS011;68064;53.100;8.824;2023-04-24T00:03:47;1.73;;;0.15;;
78744;SDS011;68064;53.100;8.824;2023-04-24T00:04:51;2.65;;;0.10;;
78744;SDS011;68064;53.100;8.824;2023-04-24T00:05:53;2.45;;;0.15;;
78744;SDS011;68064;53.100;8.824;2023-04-24T00:06:56;2.75;;;0.10;;
78744;SDS011;68064;53.100;8.824;2023-04-24T00:08:58;1.42;;;0.10;;
78744;SDS011;68064;53.100;8.824;2023-04-24T00:09:59;1.25;;;0.10;;
78744;SDS011;68064;53.100;8.824;2023-04-24T00:11:01;2.25;;;0.10;;
78744;SDS011;68064;53.100;8.824;2023-04-24T00:12:02;1.98;;;0.05;;
78744;SDS011;68064;53.100;8.824;2023-04-24T00:13:04;3.40;;;0.10;;
78744;SDS011;68064;53.100;8.824;2023-04-24T00:15:06;1.10;;;0.10;;
78744;SDS011;68064;53.100;8.824;2023-04-24T00:16:08;1.80;;;0.10;;
78744;SDS011;68064;53.100;8.824;2023-04-24T00:18:10;2.30;;;0.10;;
78744;SDS011;68064;53.100;8.824;2023-04-24T00:19:13;2.08;;;0.10;;
78744;SDS011;68064;53.100;8.824;2023-04-24T00:20:14;1.52;;;0.10;;
78744;SDS011;68064;53.100;8.824;2023-04-24T00:21:16;0.45;;;0.00;;
78744;SDS011;68064;53.100;8.824;2023-04-24T00:23:18;1.85;;;0.13;;
78744;SDS011;68064;53.100;8.824;2023-04-24T00:24:20;1.70;;;0.20;;
78744;SDS011;68064;53.100;8.824;2023-04-24T00:25:21;1.60;;;0.13;;
78744;SDS011;68064;53.100;8.824;2023-04-24T00:26:25;1.85;;;0.10;;
78744;SDS011;68064;53.100;8.824;2023-04-24T00:27:26;1.10;;;0.10;;
78744;SDS011;68064;53.100;8.824;2023-04-24T00:28:30;4.03;;;0.17;;
78744;SDS011;68064;53.100;8.824;2023-04-24T00:29:32;1.65;;;0.00;;
78744;SDS011;68064;53.100;8.824;2023-04-24T00:30:35;3.53;;;0.40;;
78744;SDS011;68064;53.100;8.824;2023-04-24T00:31:36;1.40;;;0.10;;
78744;SDS011;68064;53.100;8.824;2023-04-24T00:32:38;0.95;;;0.05;;
78744;SDS011;68064;53.100;8.824;2023-04-24T00:34:44;0.95;;;0.03;;
78744;SDS011;68064;53.100;8.824;2023-04-24T00:35:45;2.03;;;0.17;;
78744;SDS011;68064;53.100;8.824;2023-04-24T00:37:47;1.60;;;0.20;;
78744;SDS011;68064;53.100;8.824;2023-04-24T00:38:48;2.05;;;0.20;;
78744;SDS011;68064;53.100;8.824;2023-04-24T00:39:49;2.15;;;0.20;;
78744;SDS011;68064;53.100;8.824;2023-04-24T00:40:53;1.40;;;0.10;;
78744;SDS011;68064;53.100;8.824;2023-04-24T00:41:54;1.98;;;0.20;;
78744;SDS011;68064;53.100;8.824;2023-04-24T00:42:56;2.15;;;0.20;;
78744;SDS011;68064;53.100;8.824;2023-04-24T00:43:59;1.90;;;0.10;;
78744;SDS011;68064;53.100;8.824;2023-04-24T00:45:01;1.15;;;0.10;;
78744;SDS011;68064;53.100;8.824;2023-04-24T00:46:03;2.10;;;0.25;;
78744;SDS011;68064;53.100;8.824;2023-04-24T00:47:05;2.83;;;0.15;;
78744;SDS011;68064;53.100;8.824;2023-04-24T00:48:06;1.73;;;0.20;;
78744;SDS011;68064;53.100;8.824;2023-04-24T00:49:08;2.13;;;0.17;;
78744;SDS011;68064;53.100;8.824;2023-04-24T00:50:15;1.05;;;0.10;;
78744;SDS011;68064;53.100;8.824;2023-04-24T00:51:17;2.00;;;0.20;;
78744;SDS011;68064;53.100;8.824;2023-04-24T00:52:19;3.03;;;0.20;;
78744;SDS011;68064;53.100;8.824;2023-04-24T00:53:20;2.55;;;0.20;;
78744;SDS011;68064;53.100;8.824;2023-04-24T00:54:22;2.03;;;0.20;;
78744;SDS011;68064;53.100;8.824;2023-04-24T00:55:26;2.28;;;0.15;;
78744;SDS011;68064;53.100;8.824;2023-04-24T00:56:27;2.17;;;0.10;;
78744;SDS011;68064;53.100;8.824;2023-04-24T00:57:29;4.13;;;0.10;;
78744;SDS011;68064;53.100;8.824;2023-04-24T00:58:31;1.00;;;0.10;;
78744;SDS011;68064;53.100;8.824;2023-04-24T00:59:32;0.95;;;0.10;;
78744;SDS011;68064;53.100;8.824;2023-04-24T01:00:37;0.95;;;0.00;;
78744;SDS011;68064;53.100;8.824;2023-04-24T01:01:38;1.85;;;0.10;;
78744;SDS011;68064;53.100;8.824;2023-04-24T01:02:41;2.35;;;0.20;;
78744;SDS011;68064;53.100;8.824;2023-04-24T01:03:44;2.25;;;0.22;;
78744;SDS011;68064;53.100;8.824;2023-04-24T01:04:45;2.00;;;0.10;;
78744;SDS011;68064;53.100;8.824;2023-04-24T01:05:50;2.00;;;0.10;;
78744;SDS011;68064;53.100;8.824;2023-04-24T01:06:51;1.17;;;0.10;;
78744;SDS011;68064;53.100;8.824;2023-04-24T01:07:53;1.23;;;0.10;;
78744;SDS011;68064;53.100;8.824;2023-04-24T01:08:57;1.30;;;0.10;;
78744;SDS011;68064;53.100;8.824;2023-04-24T01:09:59;2.03;;;0.20;;
78744;SDS011;68064;53.100;8.824;2023-04-24T01:11:00;3.03;;;0.13;;
78744;SDS011;68064;53.100;8.824;2023-04-24T01:12:04;0.85;;;0.05;;
78744;SDS011;68064;53.100;8.824;2023-04-24T01:13:05;0.73;;;0.08;;
78744;SDS011;68064;53.100;8.824;2023-04-24T01:14:10;1.27;;;0.10;;
78744;SDS011;68064;53.100;8.824;2023-04-24T01:15:12;1.35;;;0.10;;
78744;SDS011;68064;53.100;8.824;2023-04-24T01:16:13;1.42;;;0.10;;
78744;SDS011;68064;53.100;8.824;2023-04-24T01:17:14;1.35;;;0.13;;
78744;SDS011;68064;53.100;8.824;2023-04-24T01:19:16;1.77;;;0.10;;
78744;SDS011;68064;53.100;8.824;2023-04-24T01:20:20;1.90;;;0.10;;
78744;SDS011;68064;53.100;8.824;2023-04-24T01:21:22;1.23;;;0.00;;
78744;SDS011;68064;53.100;8.824;2023-04-24T01:22:31;1.05;;;0.05;;
78744;SDS011;68064;53.100;8.824;2023-04-24T01:23:33;0.98;;;0.10;;
78744;SDS011;68064;53.100;8.824;2023-04-24T01:24:34;2.25;;;0.15;;
78744;SDS011;68064;53.100;8.824;2023-04-24T01:25:36;1.20;;;0.10;;
78744;SDS011;68064;53.100;8.824;2023-04-24T01:26:37;1.45;;;0.10;;
78744;SDS011;68064;53.100;8.824;2023-04-24T01:27:43;1.52;;;0.10;;
78744;SDS011;68064;53.100;8.824;2023-04-24T01:28:48;1.08;;;0.10;;
78744;SDS011;68064;53.100;8.824;2023-04-24T01:29:50;1.83;;;0.17;;
78744;SDS011;68064;53.100;8.824;2023-04-24T01:30:52;1.48;;;0.10;;
78744;SDS011;68064;53.100;8.824;2023-04-24T01:31:53;2.03;;;0.10;;
78744;SDS011;68064;53.100;8.824;2023-04-24T01:33:00;1.75;;;0.17;;
78744;SDS011;68064;53.100;8.824;2023-04-24T01:34:02;1.50;;;0.10;;
78744;SDS011;68064;53.100;8.824;2023-04-24T01:35:04;0.88;;;0.00;;
78744;SDS011;68064;53.100;8.824;2023-04-24T01:36:06;2.33;;;0.10;;
78744;SDS011;68064;53.100;8.824;2023-04-24T01:37:13;2.60;;;0.10;;
78744;SDS011;68064;53.100;8.824;2023-04-24T01:38:18;1.85;;;0.10;;
78744;SDS011;68064;53.100;8.824;2023-04-24T01:39:20;2.15;;;0.25;;
78744;SDS011;68064;53.100;8.824;2023-04-24T01:41:27;1.02;;;0.10;;
78744;SDS011;68064;53.100;8.824;2023-04-24T01:42:29;2.22;;;0.20;;
78744;SDS011;68064;53.100;8.824;2023-04-24T01:43:31;2.08;;;0.10;;
78744;SDS011;68064;53.100;8.824;2023-04-24T01:44:33;0.55;;;0.00;;
78744;SDS011;68064;53.100;8.824;2023-04-24T01:45:38;1.17;;;0.10;;
78744;SDS011;68064;53.100;8.824;2023-04-24T01:46:40;2.65;;;0.52;;
78744;SDS011;68064;53.100;8.824;2023-04-24T01:47:41;1.83;;;0.10;;
78744;SDS011;68064;53.100;8.824;2023-04-24T01:48:46;2.03;;;0.20;;
78744;SDS011;68064;53.100;8.824;2023-04-24T01:49:51;2.67;;;0.20;;
78744;SDS011;68064;53.100;8.824;2023-04-24T01:51:57;3.70;;;0.80;;
78744;SDS011;68064;53.100;8.824;2023-04-24T01:54:00;1.98;;;0.20;;
78744;SDS011;68064;53.100;8.824;2023-04-24T01:55:02;1.35;;;0.10;;
78744;SDS011;68064;53.100;8.824;2023-04-24T01:56:03;1.10;;;0.05;;
78744;SDS011;68064;53.100;8.824;2023-04-24T01:57:05;2.13;;;0.10;;
78744;SDS011;68064;53.100;8.824;2023-04-24T01:58:06;1.70;;;0.10;;
78744;SDS011;68064;53.100;8.824;2023-04-24T01:59:10;2.28;;;0.10;;
78744;SDS011;68064;53.100;8.824;2023-04-24T02:00:12;1.27;;;0.10;;
78744;SDS011;68064;53.100;8.824;2023-04-24T02:01:17;1.15;;;0.10;;
78744;SDS011;68064;53.100;8.824;2023-04-24T02:02:20;1.67;;;0.10;;
78744;SDS011;68064;53.100;8.824;2023-04-24T02:03:21;0.73;;;0.00;;
78744;SDS011;68064;53.100;8.824;2023-04-24T02:04:24;1.00;;;0.10;;
78744;SDS011;68064;53.100;8.824;2023-04-24T02:05:28;1.17;;;0.10;;
78744;SDS011;68064;53.100;8.824;2023-04-24T02:06:29;0.68;;;0.08;;
78744;SDS011;68064;53.100;8.824;2023-04-24T02:07:32;2.70;;;0.20;;
78744;SDS011;68064;53.100;8.824;2023-04-24T02:08:33;0.52;;;0.00;;
78744;SDS011;68064;53.100;8.824;2023-04-24T02:09:36;3.15;;;0.20;;
78744;SDS011;68064;53.100;8.824;2023-04-24T02:10:39;1.60;;;0.10;;
78744;SDS011;68064;53.100;8.824;2023-04-24T02:12:41;0.60;;;0.03;;
78744;SDS011;68064;53.100;8.824;2023-04-24T02:13:44;2.20;;;0.10;;
78744;SDS011;68064;53.100;8.824;2023-04-24T02:15:46;1.40;;;0.20;;
78744;SDS011;68064;53.100;8.824;2023-04-24T02:16:48;2.05;;;0.15;;
78744;SDS011;68064;53.100;8.824;2023-04-24T02:18:50;1.20;;;0.10;;
78744;SDS011;68064;53.100;8.824;2023-04-24T02:19:54;1.73;;;0.10;;
78744;SDS011;68064;53.100;8.824;2023-04-24T02:22:02;0.75;;;0.00;;
78744;SDS011;68064;53.100;8.824;2023-04-24T02:24:04;0.30;;;0.00;;
78744;SDS011;68064;53.100;8.824;2023-04-24T02:25:07;1.35;;;0.10;;
78744;SDS011;68064;53.100;8.824;2023-04-24T02:26:09;2.65;;;0.20;;
78744;SDS011;68064;53.100;8.824;2023-04-24T02:27:11;2.28;;;0.15;;
78744;SDS011;68064;53.100;8.824;2023-04-24T02:28:12;3.10;;;0.20;;
78744;SDS011;68064;53.100;8.824;2023-04-24T02:30:14;1.08;;;0.10;;
78744;SDS011;68064;53.100;8.824;2023-04-24T02:32:16;2.22;;;0.20;;
78744;SDS011;68064;53.100;8.824;2023-04-24T02:33:17;3.13;;;0.10;;
78744;SDS011;68064;53.100;8.824;2023-04-24T02:34:19;1.95;;;0.13;;
78744;SDS011;68064;53.100;8.824;2023-04-24T02:35:20;1.65;;;0.10;;
78744;SDS011;68064;53.100;8.824;2023-04-24T02:36:21;3.20;;;0.30;;
78744;SDS011;68064;53.100;8.824;2023-04-24T02:37:22;2.60;;;0.20;;
78744;SDS011;68064;53.100;8.824;2023-04-24T02:39:24;2.67;;;0.30;;
78744;SDS011;68064;53.100;8.824;2023-04-24T02:40:27;1.77;;;0.10;;
78744;SDS011;68064;53.100;8.824;2023-04-24T02:41:28;2.75;;;0.30;;
78744;SDS011;68064;53.100;8.824;2023-04-24T02:42:29;2.85;;;0.20;;
78744;SDS011;68064;53.100;8.824;2023-04-24T02:44:31;1.23;;;0.00;;
78744;SDS011;68064;53.100;8.824;2023-04-24T02:45:32;4.55;;;0.32;;
78744;SDS011;68064;53.100;8.824;2023-04-24T02:47:35;0.70;;;0.10;;
78744;SDS011;68064;53.100;8.824;2023-04-24T02:48:39;1.95;;;0.20;;
78744;SDS011;68064;53.100;8.824;2023-04-24T02:49:43;1.35;;;0.10;;
78744;SDS011;68064;53.100;8.824;2023-04-24T02:50:47;3.05;;;0.45;;
78744;SDS011;68064;53.100;8.824;2023-04-24T02:51:50;2.65;;;0.25;;
78744;SDS011;68064;53.100;8.824;2023-04-24T02:53:55;1.27;;;0.10;;
78744;SDS011;68064;53.100;8.824;2023-04-24T02:54:56;2.22;;;0.20;;
78744;SDS011;68064;53.100;8.824;2023-04-24T02:55:59;2.42;;;0.30;;
78744;SDS011;68064;53.100;8.824;2023-04-24T02:57:02;2.00;;;0.20;;
78744;SDS011;68064;53.100;8.824;2023-04-24T02:58:04;1.92;;;0.20;;
78744;SDS011;68064;53.100;8.824;2023-04-24T02:59:05;2.00;;;0.22;;
78744;SDS011;68064;53.100;8.824;2023-04-24T03:00:07;2.22;;;0.20;;
78744;SDS011;68064;53.100;8.824;2023-04-24T03:01:12;1.23;;;0.10;;
78744;SDS011;68064;53.100;8.824;2023-04-24T03:02:16;3.42;;;0.43;;
78744;SDS011;68064;53.100;8.824;2023-04-24T03:03:19;1.30;;;0.10;;
78744;SDS011;68064;53.100;8.824;2023-04-24T03:04:21;2.53;;;0.25;;
78744;SDS011;68064;53.100;8.824;2023-04-24T03:06:23;2.50;;;0.20;;
78744;SDS011;68064;53.100;8.824;2023-04-24T03:07:26;1.38;;;0.10;;
78744;SDS011;68064;53.100;8.824;2023-04-24T03:09:31;4.43;;;0.50;;
78744;SDS011;68064;53.100;8.824;2023-04-24T03:11:35;3.05;;;0.30;;
78744;SDS011;68064;53.100;8.824;2023-04-24T03:12:36;3.47;;;0.30;;
78744;SDS011;68064;53.100;8.824;2023-04-24T03:13:37;2.88;;;0.20;;
78744;SDS011;68064;53.100;8.824;2023-04-24T03:14:38;2.55;;;0.20;;
78744;SDS011;68064;53.100;8.824;2023-04-24T03:16:41;2.60;;;0.20;;
78744;SDS011;68064;53.100;8.824;2023-04-24T03:18:43;0.85;;;0.05;;
78744;SDS011;68064;53.100;8.824;2023-04-24T03:20:45;2.38;;;0.10;;
78744;SDS011;68064;53.100;8.824;2023-04-24T03:21:46;1.23;;;0.10;;
78744;SDS011;68064;53.100;8.824;2023-04-24T03:22:47;2.25;;;0.20;;
78744;SDS011;68064;53.100;8.824;2023-04-24T03:23:48;4.30;;;0.32;;
78744;SDS011;68064;53.100;8.824;2023-04-24T03:25:00;2.88;;;0.20;;
78744;SDS011;68064;53.100;8.824;2023-04-24T03:26:01;2.33;;;0.20;;
78744;SDS011;68064;53.100;8.824;2023-04-24T03:27:04;2.33;;;0.22;;
78744;SDS011;68064;53.100;8.824;2023-04-24T03:28:05;2.55;;;0.28;;
78744;SDS011;68064;53.100;8.824;2023-04-24T03:30:07;1.80;;;0.22;;
78744;SDS011;68064;53.100;8.824;2023-04-24T03:31:09;1.13;;;0.10;;
78744;SDS011;68064;53.100;8.824;2023-04-24T03:32:10;2.58;;;0.20;;
78744;SDS011;68064;53.100;8.824;2023-04-24T03:33:14;1.88;;;0.20;;
78744;SDS011;68064;53.100;8.824;2023-04-24T03:35:19;0.90;;;0.13;;
78744;SDS011;68064;53.100;8.824;2023-04-24T03:36:20;3.60;;;0.85;;
78744;SDS011;68064;53.100;8.824;2023-04-24T03:37:21;3.08;;;0.30;;
78744;SDS011;68064;53.100;8.824;2023-04-24T03:38:22;3.60;;;0.40;;
78744;SDS011;68064;53.100;8.824;2023-04-24T03:39:24;3.65;;;0.47;;
78744;SDS011;68064;53.100;8.824;2023-04-24T03:40:25;2.10;;;0.10;;
78744;SDS011;68064;53.100;8.824;2023-04-24T03:42:28;1.23;;;0.10;;
78744;SDS011;68064;53.100;8.824;2023-04-24T03:43:29;2.10;;;0.20;;
78744;SDS011;68064;53.100;8.824;2023-04-24T03:44:31;3.28;;;0.20;;
78744;SDS011;68064;53.100;8.824;2023-04-24T03:45:32;1.23;;;0.10;;
78744;SDS011;68064;53.100;8.824;2023-04-24T03:47:34;2.50;;;0.40;;
78744;SDS011;68064;53.100;8.824;2023-04-24T03:49:36;2.17;;;0.17;;
78744;SDS011;68064;53.100;8.824;2023-04-24T03:50:38;2.60;;;0.20;;
78744;SDS011;68064;53.100;8.824;2023-04-24T03:52:42;2.88;;;0.40;;
78744;SDS011;68064;53.100;8.824;2023-04-24T03:53:43;4.07;;;0.30;;
78744;SDS011;68064;53.100;8.824;2023-04-24T03:54:44;1.58;;;0.10;;
78744;SDS011;68064;53.100;8.824;2023-04-24T03:56:46;2.88;;;0.20;;
78744;SDS011;68064;53.100;8.824;2023-04-24T03:57:51;0.73;;;0.03;;
78744;SDS011;68064;53.100;8.824;2023-04-24T03:58:52;1.27;;;0.10;;
78744;SDS011;68064;53.100;8.824;2023-04-24T03:59:55;1.42;;;0.10;;
78744;SDS011;68064;53.100;8.824;2023-04-24T04:00:59;5.38;;;0.20;;
78744;SDS011;68064;53.100;8.824;2023-04-24T04:02:02;2.08;;;0.20;;
78744;SDS011;68064;53.100;8.824;2023-04-24T04:03:06;3.63;;;0.20;;
78744;SDS011;68064;53.100;8.824;2023-04-24T04:04:07;1.33;;;0.10;;
78744;SDS011;68064;53.100;8.824;2023-04-24T04:06:09;2.38;;;0.20;;
78744;SDS011;68064;53.100;8.824;2023-04-24T04:07:13;2.92;;;0.20;;
78744;SDS011;68064;53.100;8.824;2023-04-24T04:08:15;3.20;;;0.20;;
78744;SDS011;68064;53.100;8.824;2023-04-24T04:09:16;1.17;;;0.03;;
78744;SDS011;68064;53.100;8.824;2023-04-24T04:10:17;1.30;;;0.10;;
78744;SDS011;68064;53.100;8.824;2023-04-24T04:12:19;3.03;;;0.20;;
78744;SDS011;68064;53.100;8.824;2023-04-24T04:13:21;2.85;;;0.20;;
78744;SDS011;68064;53.100;8.824;2023-04-24T04:14:22;2.22;;;0.20;;
78744;SDS011;68064;53.100;8.824;2023-04-24T04:15:24;2.40;;;0.20;;
78744;SDS011;68064;53.100;8.824;2023-04-24T04:17:26;1.48;;;0.10;;
78744;SDS011;68064;53.100;8.824;2023-04-24T04:18:27;1.75;;;0.20;;
78744;SDS011;68064;53.100;8.824;2023-04-24T04:19:31;2.53;;;0.20;;
78744;SDS011;68064;53.100;8.824;2023-04-24T04:20:33;1.02;;;0.10;;
78744;SDS011;68064;53.100;8.824;2023-04-24T04:21:34;2.15;;;0.10;;
78744;SDS011;68064;53.100;8.824;2023-04-24T04:22:38;2.75;;;0.20;;
78744;SDS011;68064;53.100;8.824;2023-04-24T04:23:40;1.85;;;0.13;;
78744;SDS011;68064;53.100;8.824;2023-04-24T04:25:43;2.00;;;0.40;;
78744;SDS011;68064;53.100;8.824;2023-04-24T04:26:44;5.00;;;0.20;;
78744;SDS011;68064;53.100;8.824;2023-04-24T04:27:46;3.15;;;0.30;;
78744;SDS011;68064;53.100;8.824;2023-04-24T04:28:49;2.53;;;0.13;;
78744;SDS011;68064;53.100;8.824;2023-04-24T04:29:50;1.88;;;0.17;;
78744;SDS011;68064;53.100;8.824;2023-04-24T04:30:54;2.63;;;0.20;;
78744;SDS011;68064;53.100;8.824;2023-04-24T04:31:55;2.97;;;0.13;;
78744;SDS011;68064;53.100;8.824;2023-04-24T04:32:56;2.03;;;0.20;;
78744;SDS011;68064;53.100;8.824;2023-04-24T04:33:57;1.80;;;0.10;;
78744;SDS011;68064;53.100;8.824;2023-04-24T04:34:59;3.20;;;0.20;;
78744;SDS011;68064;53.100;8.824;2023-04-24T04:36:00;0.90;;;0.03;;
78744;SDS011;68064;53.100;8.824;2023-04-24T04:37:01;1.10;;;0.10;;
78744;SDS011;68064;53.100;8.824;2023-04-24T04:38:02;2.50;;;0.28;;
78744;SDS011;68064;53.100;8.824;2023-04-24T04:39:03;2.58;;;0.20;;
78744;SDS011;68064;53.100;8.824;2023-04-24T04:40:06;1.55;;;0.10;;
78744;SDS011;68064;53.100;8.824;2023-04-24T04:41:08;3.63;;;0.20;;
78744;SDS011;68064;53.100;8.824;2023-04-24T04:42:09;0.38;;;0.00;;
78744;SDS011;68064;53.100;8.824;2023-04-24T04:43:10;1.98;;;0.10;;
78744;SDS011;68064;53.100;8.824;2023-04-24T04:44:14;2.90;;;0.20;;
78744;SDS011;68064;53.100;8.824;2023-04-24T04:45:15;1.23;;;0.10;;
78744;SDS011;68064;53.100;8.824;2023-04-24T04:47:18;1.73;;;0.10;;
78744;SDS011;68064;53.100;8.824;2023-04-24T04:48:22;2.08;;;0.15;;
78744;SDS011;68064;53.100;8.824;2023-04-24T04:49:23;2.40;;;0.20;;
78744;SDS011;68064;53.100;8.824;2023-04-24T04:50:24;1.02;;;0.03;;
78744;SDS011;68064;53.100;8.824;2023-04-24T04:51:26;1.63;;;0.10;;
78744;SDS011;68064;53.100;8.824;2023-04-24T04:52:28;2.45;;;0.20;;
78744;SDS011;68064;53.100;8.824;2023-04-24T04:54:30;1.02;;;0.00;;
78744;SDS011;68064;53.100;8.824;2023-04-24T04:56:32;2.15;;;0.20;;
78744;SDS011;68064;53.100;8.824;2023-04-24T04:57:34;1.95;;;0.10;;
78744;SDS011;68064;53.100;8.824;2023-04-24T04:58:35;3.03;;;0.15;;
78744;SDS011;68064;53.100;8.824;2023-04-24T05:00:39;2.05;;;0.10;;
78744;SDS011;68064;53.100;8.824;2023-04-24T05:01:40;2.58;;;0.20;;
78744;SDS011;68064;53.100;8.824;2023-04-24T05:02:41;4.15;;;0.20;;
78744;SDS011;68064;53.100;8.824;2023-04-24T05:03:43;0.88;;;0.10;;
78744;SDS011;68064;53.100;8.824;2023-04-24T05:04:45;2.10;;;0.20;;
78744;SDS011;68064;53.100;8.824;2023-04-24T05:05:47;1.58;;;0.10;;
78744;SDS011;68064;53.100;8.824;2023-04-24T05:06:48;1.92;;;0.40;;
78744;SDS011;68064;53.100;8.824;2023-04-24T05:07:49;1.65;;;0.10;;
78744;SDS011;68064;53.100;8.824;2023-04-24T05:09:51;2.40;;;0.20;;
78744;SDS011;68064;53.100;8.824;2023-04-24T05:10:52;3.60;;;0.32;;
78744;SDS011;68064;53.100;8.824;2023-04-24T05:12:54;3.58;;;0.05;;
78744;SDS011;68064;53.100;8.824;2023-04-24T05:14:57;2.30;;;0.17;;
78744;SDS011;68064;53.100;8.824;2023-04-24T05:15:58;3.13;;;0.30;;
78744;SDS011;68064;53.100;8.824;2023-04-24T05:16:59;1.08;;;0.08;;
78744;SDS011;68064;53.100;8.824;2023-04-24T05:18:00;3.25;;;0.10;;
78744;SDS011;68064;53.100;8.824;2023-04-24T05:19:01;4.47;;;0.38;;
78744;SDS011;68064;53.100;8.824;2023-04-24T05:20:03;2.83;;;0.20;;
78744;SDS011;68064;53.100;8.824;2023-04-24T05:21:05;3.15;;;0.13;;
78744;SDS011;68064;53.100;8.824;2023-04-24T05:22:06;1.50;;;0.10;;
78744;SDS011;68064;53.100;8.824;2023-04-24T05:23:07;1.60;;;0.10;;
78744;SDS011;68064;53.100;8.824;2023-04-24T05:24:08;1.67;;;0.20;;
78744;SDS011;68064;53.100;8.824;2023-04-24T05:25:09;1.42;;;0.20;;
78744;SDS011;68064;53.100;8.824;2023-04-24T05:26:10;2.53;;;0.20;;
78744;SDS011;68064;53.100;8.824;2023-04-24T05:27:11;2.30;;;0.10;;
78744;SDS011;68064;53.100;8.824;2023-04-24T05:28:12;2.20;;;0.17;;
78744;SDS011;68064;53.100;8.824;2023-04-24T05:29:13;2.47;;;0.25;;
78744;SDS011;68064;53.100;8.824;2023-04-24T05:30:16;1.80;;;0.10;;
78744;SDS011;68064;53.100;8.824;2023-04-24T05:31:17;2.80;;;0.10;;
78744;SDS011;68064;53.100;8.824;2023-04-24T05:32:18;2.70;;;0.30;;
78744;SDS011;68064;53.100;8.824;2023-04-24T05:33:19;1.13;;;0.10;;
78744;SDS011;68064;53.100;8.824;2023-04-24T05:34:20;2.53;;;0.20;;
78744;SDS011;68064;53.100;8.824;2023-04-24T05:35:21;2.78;;;0.20;;
78744;SDS011;68064;53.100;8.824;2023-04-24T05:36:23;2.78;;;0.20;;
78744;SDS011;68064;53.100;8.824;2023-04-24T05:37:24;3.47;;;0.20;;
78744;SDS011;68064;53.100;8.824;2023-04-24T05:38:25;4.40;;;0.30;;
78744;SDS011;68064;53.100;8.824;2023-04-24T05:40:27;4.38;;;0.30;;
78744;SDS011;68064;53.100;8.824;2023-04-24T05:42:29;4.20;;;0.25;;
78744;SDS011;68064;53.100;8.824;2023-04-24T05:43:30;1.80;;;0.10;;
78744;SDS011;68064;53.100;8.824;2023-04-24T05:44:32;3.47;;;0.22;;
78744;SDS011;68064;53.100;8.824;2023-04-24T05:45:34;3.13;;;0.10;;
78744;SDS011;68064;53.100;8.824;2023-04-24T05:46:35;1.92;;;0.10;;
78744;SDS011;68064;53.100;8.824;2023-04-24T05:47:36;1.50;;;0.15;;
78744;SDS011;68064;53.100;8.824;2023-04-24T05:48:37;2.15;;;0.20;;
78744;SDS011;68064;53.100;8.824;2023-04-24T05:49:38;2.10;;;0.20;;
78744;SDS011;68064;53.100;8.824;2023-04-24T05:50:40;2.35;;;0.20;;
78744;SDS011;68064;53.100;8.824;2023-04-24T05:51:41;3.08;;;0.20;;
78744;SDS011;68064;53.100;8.824;2023-04-24T05:52:42;3.47;;;0.32;;
78744;SDS011;68064;53.100;8.824;2023-04-24T05:53:43;2.78;;;0.20;;
78744;SDS011;68064;53.100;8.824;2023-04-24T05:54:44;2.85;;;0.20;;
78744;SDS011;68064;53.100;8.824;2023-04-24T05:55:45;3.15;;;0.20;;
78744;SDS011;68064;53.100;8.824;2023-04-24T05:56:46;4.03;;;0.25;;
78744;SDS011;68064;53.100;8.824;2023-04-24T05:57:47;5.35;;;0.30;;
78744;SDS011;68064;53.100;8.824;2023-04-24T05:58:48;2.47;;;0.20;;
78744;SDS011;68064;53.100;8.824;2023-04-24T05:59:49;1.65;;;0.13;;
78744;SDS011;68064;53.100;8.824;2023-04-24T06:00:51;4.55;;;0.40;;
78744;SDS011;68064;53.100;8.824;2023-04-24T06:01:52;2.17;;;0.22;;
78744;SDS011;68064;53.100;8.824;2023-04-24T06:03:55;3.35;;;0.30;;
78744;SDS011;68064;53.100;8.824;2023-04-24T06:04:56;3.53;;;0.30;;
78744;SDS011;68064;53.100;8.824;2023-04-24T06:05:57;3.08;;;0.20;;
78744;SDS011;68064;53.100;8.824;2023-04-24T06:06:58;3.65;;;0.40;;
78744;SDS011;68064;53.100;8.824;2023-04-24T06:07:59;3.33;;;0.40;;
78744;SDS011;68064;53.100;8.824;2023-04-24T06:09:00;2.80;;;0.30;;
78744;SDS011;68064;53.100;8.824;2023-04-24T06:10:01;4.22;;;0.50;;
78744;SDS011;68064;53.100;8.824;2023-04-24T06:11:02;2.58;;;0.20;;
78744;SDS011;68064;53.100;8.824;2023-04-24T06:12:05;2.85;;;0.38;;
78744;SDS011;68064;53.100;8.824;2023-04-24T06:13:06;4.50;;;0.63;;
78744;SDS011;68064;53.100;8.824;2023-04-24T06:14:07;4.72;;;0.40;;
78744;SDS011;68064;53.100;8.824;2023-04-24T06:15:08;4.90;;;0.40;;
78744;SDS011;68064;53.100;8.824;2023-04-24T06:16:11;3.42;;;0.35;;
78744;SDS011;68064;53.100;8.824;2023-04-24T06:17:12;4.95;;;0.50;;
78744;SDS011;68064;53.100;8.824;2023-04-24T06:18:13;4.72;;;0.30;;
78744;SDS011;68064;53.100;8.824;2023-04-24T06:19:14;4.60;;;0.45;;
78744;SDS011;68064;53.100;8.824;2023-04-24T06:20:17;4.85;;;0.55;;
78744;SDS011;68064;53.100;8.824;2023-04-24T06:21:18;4.10;;;0.50;;
78744;SDS011;68064;53.100;8.824;2023-04-24T06:22:19;5.03;;;0.68;;
78744;SDS011;68064;53.100;8.824;2023-04-24T06:24:21;5.28;;;0.90;;
78744;SDS011;68064;53.100;8.824;2023-04-24T06:25:23;2.05;;;0.28;;
78744;SDS011;68064;53.100;8.824;2023-04-24T06:26:25;3.50;;;0.40;;
78744;SDS011;68064;53.100;8.824;2023-04-24T06:27:26;3.53;;;0.30;;
78744;SDS011;68064;53.100;8.824;2023-04-24T06:28:27;4.35;;;0.60;;
78744;SDS011;68064;53.100;8.824;2023-04-24T06:29:28;5.68;;;1.15;;
78744;SDS011;68064;53.100;8.824;2023-04-24T06:30:30;3.50;;;0.43;;
78744;SDS011;68064;53.100;8.824;2023-04-24T06:31:32;4.57;;;0.93;;
78744;SDS011;68064;53.100;8.824;2023-04-24T06:32:33;7.05;;;1.45;;
78744;SDS011;68064;53.100;8.824;2023-04-24T06:33:34;6.88;;;1.23;;
78744;SDS011;68064;53.100;8.824;2023-04-24T06:34:37;3.80;;;0.50;;
78744;SDS011;68064;53.100;8.824;2023-04-24T06:35:38;4.35;;;0.60;;
78744;SDS011;68064;53.100;8.824;2023-04-24T06:36:40;4.57;;;0.47;;
78744;SDS011;68064;53.100;8.824;2023-04-24T06:37:42;5.60;;;0.73;;
78744;SDS011;68064;53.100;8.824;2023-04-24T06:38:43;5.22;;;0.70;;
78744;SDS011;68064;53.100;8.824;2023-04-24T06:39:45;3.70;;;0.45;;
78744;SDS011;68064;53.100;8.824;2023-04-24T06:40:46;4.43;;;0.60;;
78744;SDS011;68064;53.100;8.824;2023-04-24T06:41:47;5.20;;;0.47;;
78744;SDS011;68064;53.100;8.824;2023-04-24T06:42:48;5.43;;;0.80;;
78744;SDS011;68064;53.100;8.824;2023-04-24T06:43:49;7.82;;;0.70;;
78744;SDS011;68064;53.100;8.824;2023-04-24T06:45:51;4.53;;;0.30;;
78744;SDS011;68064;53.100;8.824;2023-04-24T06:46:53;6.60;;;1.60;;
78744;SDS011;68064;53.100;8.824;2023-04-24T06:47:54;4.60;;;0.63;;
78744;SDS011;68064;53.100;8.824;2023-04-24T06:48:56;5.28;;;0.63;;
78744;SDS011;68064;53.100;8.824;2023-04-24T06:49:57;4.55;;;0.50;;
78744;SDS011;68064;53.100;8.824;2023-04-24T06:50:58;6.25;;;1.20;;
78744;SDS011;68064;53.100;8.824;2023-04-24T06:51:59;3.70;;;0.70;;
78744;SDS011;68064;53.100;8.824;2023-04-24T06:53:00;6.22;;;1.02;;
78744;SDS011;68064;53.100;8.824;2023-04-24T06:54:01;7.60;;;1.27;;
78744;SDS011;68064;53.100;8.824;2023-04-24T06:56:04;6.32;;;1.30;;
78744;SDS011;68064;53.100;8.824;2023-04-24T06:57:05;6.32;;;1.15;;
78744;SDS011;68064;53.100;8.824;2023-04-24T06:58:06;5.40;;;1.05;;
78744;SDS011;68064;53.100;8.824;2023-04-24T06:59:07;8.57;;;1.77;;
78744;SDS011;68064;53.100;8.824;2023-04-24T07:00:09;7.80;;;2.03;;
78744;SDS011;68064;53.100;8.824;2023-04-24T07:01:11;3.65;;;0.43;;
78744;SDS011;68064;53.100;8.824;2023-04-24T07:03:14;5.53;;;0.90;;
78744;SDS011;68064;53.100;8.824;2023-04-24T07:04:15;6.22;;;1.55;;
78744;SDS011;68064;53.100;8.824;2023-04-24T07:05:16;8.77;;;3.20;;
78744;SDS011;68064;53.100;8.824;2023-04-24T07:06:17;8.65;;;2.08;;